createdAt,value
2023-06-16T00:00:48.485Z,501.00
2023-06-16T00:01:48.586Z,501.00
2023-06-16T00:02:48.629Z,500.00
2023-06-16T00:03:47.633Z,502.00
2023-06-16T00:04:48.637Z,503.00
2023-06-16T00:05:48.679Z,504.00
2023-06-16T00:06:48.724Z,505.00
2023-06-16T00:07:48.764Z,504.00
2023-06-16T00:08:48.825Z,506.00
2023-06-16T00:09:48.889Z,508.00
2023-06-16T00:10:48.890Z,506.00
2023-06-16T00:11:48.924Z,504.00
2023-06-16T00:12:48.000Z,504.00
2023-06-16T00:13:49.031Z,502.00
2023-06-16T00:14:49.054Z,503.00
2023-06-16T00:15:49.094Z,502.00
2023-06-16T00:16:49.127Z,503.00
2023-06-16T00:17:49.306Z,502.00
2023-06-16T00:18:48.216Z,500.00
2023-06-16T00:19:49.248Z,500.00
2023-06-16T00:20:49.276Z,500.00
2023-06-16T00:21:49.330Z,501.00
2023-06-16T00:22:49.720Z,499.00
2023-06-16T00:23:48.425Z,499.00
2023-06-16T00:24:49.463Z,500.00
2023-06-16T00:25:49.516Z,502.00
2023-06-16T00:26:49.555Z,498.00
2023-06-16T00:27:49.615Z,499.00
2023-06-16T00:28:48.734Z,501.00
2023-06-16T00:29:48.685Z,501.00
2023-06-16T00:30:49.786Z,500.00
2023-06-16T00:31:49.818Z,502.00
2023-06-16T00:32:49.867Z,501.00
2023-06-16T00:33:48.900Z,505.00
2023-06-16T00:34:49.952Z,503.00
2023-06-16T00:35:49.979Z,503.00
2023-06-16T00:36:50.012Z,504.00
2023-06-16T00:37:50.070Z,506.00
2023-06-16T00:38:50.090Z,507.00
2023-06-16T00:39:50.139Z,507.00
2023-06-16T00:40:50.184Z,507.00
2023-06-16T00:41:50.220Z,507.00
2023-06-16T00:42:50.307Z,508.00
2023-06-16T00:43:49.317Z,505.00
2023-06-16T00:44:50.385Z,503.00
2023-06-16T00:45:50.414Z,500.00
2023-06-16T00:46:50.494Z,502.00
2023-06-16T00:47:50.543Z,502.00
2023-06-16T00:48:50.546Z,503.00
2023-06-16T00:49:49.609Z,503.00
2023-06-16T00:50:49.658Z,503.00
2023-06-16T00:51:50.706Z,502.00
2023-06-16T00:52:50.784Z,503.00
2023-06-16T00:53:49.835Z,503.00
2023-06-16T00:54:50.889Z,504.00
2023-06-16T00:55:50.915Z,505.00
2023-06-16T00:56:50.989Z,507.00
2023-06-16T00:57:51.038Z,506.00
2023-06-16T00:58:51.089Z,504.00
2023-06-16T00:59:50.157Z,506.00
2023-06-16T01:00:50.195Z,506.00
2023-06-16T01:01:51.275Z,507.00
2023-06-16T01:02:51.417Z,506.00
2023-06-16T01:03:51.364Z,504.00
2023-06-16T01:04:51.399Z,503.00
2023-06-16T01:05:51.465Z,504.00
2023-06-16T01:06:50.490Z,504.00
2023-06-16T01:07:51.588Z,505.00
2023-06-16T01:08:51.657Z,505.00
2023-06-16T01:09:51.676Z,508.00
2023-06-16T01:10:51.723Z,506.00
2023-06-16T01:11:51.800Z,504.00
2023-06-16T01:12:51.840Z,504.00
2023-06-16T01:13:51.910Z,504.00
2023-06-16T01:14:50.943Z,505.00
2023-06-16T01:15:52.029Z,507.00
2023-06-16T01:16:52.085Z,505.00
2023-06-16T01:17:52.105Z,505.00
2023-06-16T01:18:52.169Z,502.00
2023-06-16T01:19:52.213Z,502.00
2023-06-16T01:20:52.327Z,505.00
2023-06-16T01:21:52.311Z,505.00
2023-06-16T01:22:51.405Z,504.00
2023-06-16T01:23:51.491Z,503.00
2023-06-16T01:24:52.481Z,503.00
2023-06-16T01:25:52.556Z,501.00
2023-06-16T01:26:52.560Z,501.00
2023-06-16T01:27:52.639Z,503.00
2023-06-16T01:28:52.688Z,504.00
2023-06-16T01:29:52.796Z,504.00
2023-06-16T01:30:52.772Z,505.00
2023-06-16T01:31:52.840Z,505.00
2023-06-16T01:32:52.886Z,506.00
2023-06-16T01:33:52.970Z,508.00
2023-06-16T01:34:53.015Z,507.00
2023-06-16T01:35:52.053Z,508.00
2023-06-16T01:36:53.105Z,508.00
2023-06-16T01:37:53.158Z,508.00
2023-06-16T01:38:53.235Z,508.00
2023-06-16T01:39:53.263Z,508.00
2023-06-16T01:40:52.333Z,510.00
2023-06-16T01:41:53.368Z,512.00
2023-06-16T01:42:53.459Z,514.00
2023-06-16T01:43:53.470Z,517.00
2023-06-16T01:44:53.535Z,513.00
2023-06-16T01:45:53.662Z,512.00
2023-06-16T01:46:53.736Z,509.00
2023-06-16T01:47:52.750Z,509.00
2023-06-16T01:48:52.780Z,509.00
2023-06-16T01:49:53.824Z,511.00
2023-06-16T01:50:52.879Z,511.00
2023-06-16T01:51:53.931Z,511.00
2023-06-16T01:52:54.006Z,510.00
2023-06-16T01:53:54.061Z,509.00
2023-06-16T01:54:54.141Z,505.00
2023-06-16T01:55:54.163Z,504.00
2023-06-16T01:56:54.227Z,507.00
2023-06-16T01:57:54.367Z,510.00
2023-06-16T01:58:54.327Z,511.00
2023-06-16T01:59:54.400Z,510.00
2023-06-16T02:00:54.455Z,510.00
2023-06-16T02:01:54.520Z,510.00
2023-06-16T02:02:54.702Z,511.00
2023-06-16T02:03:54.797Z,511.00
2023-06-16T02:04:53.669Z,512.00
2023-06-16T02:05:53.722Z,512.00
2023-06-16T02:06:54.784Z,513.00
2023-06-16T02:07:54.985Z,510.00
2023-06-16T02:08:55.007Z,509.00
2023-06-16T02:09:53.943Z,510.00
2023-06-16T02:10:55.029Z,509.00
2023-06-16T02:11:55.062Z,508.00
2023-06-16T02:12:55.124Z,508.00
2023-06-16T02:13:54.190Z,508.00
2023-06-16T02:14:55.255Z,507.00
2023-06-16T02:15:54.372Z,507.00
2023-06-16T02:16:54.368Z,505.00
2023-06-16T02:17:55.431Z,504.00
2023-06-16T02:18:55.546Z,506.00
2023-06-16T02:19:54.523Z,509.00
2023-06-16T02:20:55.592Z,509.00
2023-06-16T02:21:55.673Z,508.00
2023-06-16T02:22:54.720Z,504.00
2023-06-16T02:23:55.822Z,505.00
2023-06-16T02:24:55.836Z,506.00
2023-06-16T02:25:55.914Z,505.00
2023-06-16T02:26:54.975Z,505.00
2023-06-16T02:27:55.063Z,507.00
2023-06-16T02:28:56.079Z,507.00
2023-06-16T02:29:56.154Z,506.00
2023-06-16T02:30:56.234Z,509.00
2023-06-16T02:31:56.278Z,510.00
2023-06-16T02:33:02.521Z,508.00
2023-06-16T02:33:56.286Z,509.00
2023-06-16T02:34:56.322Z,507.00
2023-06-16T02:35:56.285Z,507.00
2023-06-16T02:36:55.261Z,507.00
2023-06-16T02:37:56.339Z,506.00
2023-06-16T02:38:56.262Z,506.00
2023-06-16T02:39:56.271Z,504.00
2023-06-16T02:40:55.265Z,506.00
2023-06-16T02:41:56.300Z,507.00
2023-06-16T02:42:56.364Z,510.00
2023-06-16T02:43:55.407Z,508.00
2023-06-16T02:44:55.448Z,508.00
2023-06-16T02:45:55.533Z,508.00
2023-06-16T02:46:56.625Z,508.00
2023-06-16T02:47:56.721Z,510.00
2023-06-16T02:48:56.699Z,509.00
2023-06-16T02:49:55.838Z,505.00
2023-06-16T02:50:56.842Z,506.00
2023-06-16T02:51:56.916Z,505.00
2023-06-16T02:52:56.955Z,505.00
2023-06-16T02:53:56.014Z,504.00
2023-06-16T02:54:57.061Z,504.00
2023-06-16T02:55:57.124Z,503.00
2023-06-16T02:56:57.180Z,500.00
2023-06-16T02:57:57.249Z,501.00
2023-06-16T02:58:57.270Z,503.00
2023-06-16T02:59:57.302Z,502.00
2023-06-16T03:00:57.389Z,505.00
2023-06-16T03:01:57.412Z,505.00
2023-06-16T03:02:57.544Z,506.00
2023-06-16T03:03:57.527Z,508.00
2023-06-16T03:04:57.599Z,506.00
2023-06-16T03:05:57.645Z,509.00
2023-06-16T03:06:57.742Z,510.00
2023-06-16T03:07:56.776Z,511.00
2023-06-16T03:08:57.838Z,514.00
2023-06-16T03:09:57.867Z,512.00
2023-06-16T03:10:57.952Z,512.00
2023-06-16T03:11:57.041Z,513.00
2023-06-16T03:12:57.061Z,512.00
2023-06-16T03:13:58.136Z,510.00
2023-06-16T03:14:58.183Z,510.00
2023-06-16T03:15:57.208Z,509.00
2023-06-16T03:16:57.273Z,510.00
2023-06-16T03:17:59.966Z,507.00
2023-06-16T03:18:58.332Z,506.00
2023-06-16T03:19:58.305Z,508.00
2023-06-16T03:20:58.315Z,508.00
2023-06-16T03:21:57.296Z,511.00
2023-06-16T03:22:58.309Z,509.00
2023-06-16T03:23:58.295Z,510.00
2023-06-16T03:24:58.270Z,510.00
2023-06-16T03:25:58.258Z,510.00
2023-06-16T03:26:58.320Z,509.00
2023-06-16T03:27:58.274Z,509.00
2023-06-16T03:28:58.247Z,507.00
2023-06-16T03:29:58.237Z,507.00
2023-06-16T03:30:58.218Z,510.00
2023-06-16T03:31:58.220Z,508.00
2023-06-16T03:32:58.253Z,507.00
2023-06-16T03:34:01.955Z,507.00
2023-06-16T03:34:58.197Z,508.00
2023-06-16T03:35:57.184Z,508.00
2023-06-16T03:36:58.192Z,507.00
2023-06-16T03:37:58.191Z,507.00
2023-06-16T03:38:58.198Z,508.00
2023-06-16T03:39:58.155Z,512.00
2023-06-16T03:40:58.168Z,513.00
2023-06-16T03:41:58.162Z,514.00
2023-06-16T03:42:58.147Z,513.00
2023-06-16T03:43:58.160Z,511.00
2023-06-16T03:44:58.128Z,509.00
2023-06-16T03:45:58.209Z,509.00
2023-06-16T03:46:58.188Z,509.00
2023-06-16T03:47:58.347Z,507.00
2023-06-16T03:48:58.254Z,506.00
2023-06-16T03:49:57.305Z,506.00
2023-06-16T03:50:58.358Z,507.00
2023-06-16T03:51:57.418Z,508.00
2023-06-16T03:53:14.794Z,508.00
2023-06-16T03:53:58.451Z,506.00
2023-06-16T03:54:58.513Z,508.00
2023-06-16T03:55:57.450Z,507.00
2023-06-16T03:56:58.472Z,508.00
2023-06-16T03:57:58.438Z,509.00
2023-06-16T03:58:58.424Z,509.00
2023-06-16T03:59:58.412Z,509.00
2023-06-16T04:00:58.405Z,508.00
2023-06-16T04:01:58.391Z,509.00
2023-06-16T04:02:58.545Z,508.00
2023-06-16T04:03:57.430Z,508.00
2023-06-16T04:04:58.374Z,509.00
2023-06-16T04:05:58.389Z,506.00
2023-06-16T04:06:58.361Z,506.00
2023-06-16T04:07:58.409Z,506.00
2023-06-16T04:08:57.352Z,504.00
2023-06-16T04:09:58.357Z,505.00
2023-06-16T04:10:58.360Z,507.00
2023-06-16T04:11:58.348Z,508.00
2023-06-16T04:12:58.322Z,505.00
2023-06-16T04:13:57.358Z,506.00
2023-06-16T04:14:57.296Z,508.00
2023-06-16T04:15:57.293Z,508.00
2023-06-16T04:16:58.301Z,509.00
2023-06-16T04:17:58.314Z,510.00
2023-06-16T04:18:58.300Z,512.00
2023-06-16T04:19:58.310Z,512.00
2023-06-16T04:20:58.301Z,511.00
2023-06-16T04:21:58.923Z,509.00
2023-06-16T04:22:58.256Z,510.00
2023-06-16T04:23:57.261Z,512.00
2023-06-16T04:24:58.216Z,513.00
2023-06-16T04:25:58.243Z,515.00
2023-06-16T04:26:58.235Z,514.00
2023-06-16T04:27:58.271Z,515.00
2023-06-16T04:28:58.195Z,515.00
2023-06-16T04:29:58.182Z,517.00
2023-06-16T04:30:58.180Z,516.00
2023-06-16T04:31:58.204Z,514.00
2023-06-16T04:32:58.207Z,515.00
2023-06-16T04:33:58.154Z,515.00
2023-06-16T04:34:58.138Z,514.00
2023-06-16T04:35:58.148Z,512.00
2023-06-16T04:36:58.194Z,510.00
2023-06-16T04:37:58.264Z,511.00
2023-06-16T04:38:58.279Z,509.00
2023-06-16T04:39:58.307Z,509.00
2023-06-16T04:40:58.366Z,505.00
2023-06-16T04:41:57.418Z,505.00
2023-06-16T04:42:58.503Z,507.00
2023-06-16T04:43:58.486Z,509.00
2023-06-16T04:44:57.534Z,511.00
2023-06-16T04:45:58.644Z,510.00
2023-06-16T04:46:58.603Z,509.00
2023-06-16T04:47:58.651Z,511.00
2023-06-16T04:48:57.644Z,511.00
2023-06-16T04:49:58.669Z,510.00
2023-06-16T04:50:57.688Z,510.00
2023-06-16T04:51:58.678Z,510.00
2023-06-16T04:52:58.677Z,508.00
2023-06-16T04:53:58.725Z,509.00
2023-06-16T04:54:57.751Z,505.00
2023-06-16T04:55:57.775Z,506.00
2023-06-16T04:56:57.806Z,507.00
2023-06-16T04:57:58.876Z,506.00
2023-06-16T04:58:58.884Z,505.00
2023-06-16T04:59:57.886Z,503.00
2023-06-16T05:00:58.930Z,505.00
2023-06-16T05:01:58.906Z,506.00
2023-06-16T05:02:58.983Z,506.00
2023-06-16T05:03:59.059Z,505.00
2023-06-16T05:04:57.937Z,505.00
2023-06-16T05:05:58.922Z,506.00
2023-06-16T05:06:58.936Z,506.00
2023-06-16T05:07:59.029Z,507.00
2023-06-16T05:08:58.001Z,507.00
2023-06-16T05:09:58.970Z,506.00
2023-06-16T05:10:59.145Z,507.00
2023-06-16T05:11:59.280Z,506.00
2023-06-16T05:12:58.979Z,507.00
2023-06-16T05:13:59.029Z,511.00
2023-06-16T05:14:58.951Z,510.00
2023-06-16T05:15:58.947Z,508.00
2023-06-16T05:16:57.975Z,509.00
2023-06-16T05:17:59.017Z,511.00
2023-06-16T05:18:59.217Z,514.00
2023-06-16T05:19:58.999Z,514.00
2023-06-16T05:20:58.025Z,512.00
2023-06-16T05:21:59.068Z,513.00
2023-06-16T05:22:59.069Z,512.00
2023-06-16T05:23:59.177Z,510.00
2023-06-16T05:24:59.219Z,510.00
2023-06-16T05:25:59.137Z,512.00
2023-06-16T05:26:59.150Z,510.00
2023-06-16T05:27:59.204Z,511.00
2023-06-16T05:28:59.219Z,511.00
2023-06-16T05:30:01.073Z,507.00
2023-06-16T05:30:59.332Z,509.00
2023-06-16T05:31:59.245Z,509.00
2023-06-16T05:32:59.311Z,510.00
2023-06-16T05:33:59.222Z,509.00
2023-06-16T05:34:59.236Z,509.00
2023-06-16T05:35:59.523Z,508.00
2023-06-16T05:36:59.212Z,509.00
2023-06-16T05:38:05.912Z,512.00
2023-06-16T05:38:59.181Z,511.00
2023-06-16T05:39:58.193Z,511.00
2023-06-16T05:40:59.163Z,511.00
2023-06-16T05:41:59.160Z,508.00
2023-06-16T05:42:59.158Z,511.00
2023-06-16T05:43:59.188Z,510.00
2023-06-16T05:44:59.169Z,512.00
2023-06-16T05:45:59.130Z,511.00
2023-06-16T05:46:58.144Z,513.00
2023-06-16T05:47:59.164Z,514.00
2023-06-16T05:48:59.160Z,515.00
2023-06-16T05:49:59.093Z,515.00
2023-06-16T05:50:59.096Z,514.00
2023-06-16T05:51:59.118Z,515.00
2023-06-16T05:52:58.085Z,515.00
2023-06-16T05:53:59.126Z,514.00
2023-06-16T05:54:59.157Z,514.00
2023-06-16T05:55:59.535Z,516.00
2023-06-16T05:56:58.280Z,518.00
2023-06-16T05:57:59.348Z,517.00
2023-06-16T05:58:59.418Z,517.00
2023-06-16T05:59:58.468Z,518.00
2023-06-16T06:00:59.504Z,519.00
2023-06-16T06:01:59.604Z,520.00
2023-06-16T06:02:59.705Z,522.00
2023-06-16T06:04:00.152Z,522.00
2023-06-16T06:04:59.786Z,522.00
2023-06-16T06:05:59.858Z,523.00
2023-06-16T06:06:58.872Z,521.00
2023-06-16T06:07:59.928Z,523.00
2023-06-16T06:08:59.997Z,524.00
2023-06-16T06:10:00.042Z,525.00
2023-06-16T06:11:00.132Z,525.00
2023-06-16T06:12:00.182Z,526.00
2023-06-16T06:13:00.206Z,526.00
2023-06-16T06:13:59.273Z,527.00
2023-06-16T06:15:00.304Z,524.00
2023-06-16T06:16:00.390Z,522.00
2023-06-16T06:17:00.424Z,521.00
2023-06-16T06:18:00.533Z,524.00
2023-06-16T06:19:00.511Z,524.00
2023-06-16T06:20:00.549Z,524.00
2023-06-16T06:20:59.596Z,522.00
2023-06-16T06:21:59.669Z,522.00
2023-06-16T06:23:00.687Z,522.00
2023-06-16T06:23:59.778Z,521.00
2023-06-16T06:25:00.792Z,520.00
2023-06-16T06:25:59.881Z,523.00
2023-06-16T06:27:00.905Z,523.00
2023-06-16T06:28:00.964Z,521.00
2023-06-16T06:29:01.030Z,523.00
2023-06-16T06:30:01.041Z,526.00
2023-06-16T06:31:01.112Z,523.00
2023-06-16T06:32:01.151Z,522.00
2023-06-16T06:33:01.300Z,521.00
2023-06-16T06:34:01.295Z,523.00
2023-06-16T06:35:01.956Z,523.00
2023-06-16T06:36:01.474Z,524.00
2023-06-16T06:37:01.456Z,525.00
2023-06-16T06:38:01.503Z,527.00
2023-06-16T06:39:01.571Z,527.00
2023-06-16T06:40:01.658Z,528.00
2023-06-16T06:41:01.694Z,526.00
2023-06-16T06:42:01.723Z,525.00
2023-06-16T06:43:01.764Z,524.00
2023-06-16T06:44:01.839Z,522.00
2023-06-16T06:45:00.865Z,523.00
2023-06-16T06:46:02.019Z,523.00
2023-06-16T06:47:01.981Z,522.00
2023-06-16T06:48:02.066Z,521.00
2023-06-16T06:49:02.123Z,521.00
2023-06-16T06:50:01.190Z,519.00
2023-06-16T06:51:02.221Z,517.00
2023-06-16T06:52:02.247Z,516.00
2023-06-16T06:53:02.325Z,514.00
2023-06-16T06:54:02.436Z,514.00
2023-06-16T06:55:01.485Z,515.00
2023-06-16T06:56:02.439Z,517.00
2023-06-16T06:57:02.470Z,519.00
2023-06-16T06:58:02.541Z,521.00
2023-06-16T06:59:01.940Z,520.00
2023-06-16T07:00:02.614Z,520.00
2023-06-16T07:01:02.671Z,522.00
2023-06-16T07:02:01.767Z,522.00
2023-06-16T07:03:02.951Z,523.00
2023-06-16T07:04:01.983Z,523.00
2023-06-16T07:05:01.883Z,523.00
2023-06-16T07:06:03.021Z,522.00
2023-06-16T07:07:03.046Z,522.00
2023-06-16T07:08:02.054Z,521.00
2023-06-16T07:09:03.156Z,520.00
2023-06-16T07:10:03.151Z,522.00
2023-06-16T07:11:03.234Z,524.00
2023-06-16T07:12:03.274Z,524.00
2023-06-16T07:13:03.333Z,525.00
2023-06-16T07:14:03.379Z,524.00
2023-06-16T07:15:03.432Z,520.00
2023-06-16T07:16:03.500Z,519.00
2023-06-16T07:17:03.558Z,518.00
2023-06-16T07:18:03.719Z,516.00
2023-06-16T07:19:03.703Z,516.00
2023-06-16T07:20:03.737Z,515.00
2023-06-16T07:21:02.788Z,513.00
2023-06-16T07:22:03.874Z,513.00
2023-06-16T07:23:03.879Z,513.00
2023-06-16T07:24:04.017Z,513.00
2023-06-16T07:25:03.989Z,515.00
2023-06-16T07:26:04.048Z,514.00
2023-06-16T07:27:03.073Z,513.00
2023-06-16T07:28:04.129Z,513.00
2023-06-16T07:29:06.400Z,513.00
2023-06-16T07:30:04.169Z,514.00
2023-06-16T07:31:04.148Z,514.00
2023-06-16T07:32:04.153Z,514.00
2023-06-16T07:33:04.209Z,515.00
2023-06-16T07:34:03.147Z,515.00
2023-06-16T07:35:03.132Z,514.00
2023-06-16T07:36:04.113Z,515.00
2023-06-16T07:37:04.125Z,516.00
2023-06-16T07:38:04.146Z,517.00
2023-06-16T07:39:03.111Z,516.00
2023-06-16T07:40:05.817Z,513.00
2023-06-16T07:41:04.078Z,515.00
2023-06-16T07:42:04.080Z,517.00
2023-06-16T07:43:04.081Z,517.00
2023-06-16T07:44:04.081Z,518.00
2023-06-16T07:45:03.088Z,519.00
2023-06-16T07:46:03.083Z,517.00
2023-06-16T07:47:04.032Z,514.00
2023-06-16T07:48:04.086Z,513.00
2023-06-16T07:49:04.478Z,514.00
2023-06-16T07:50:04.045Z,515.00
2023-06-16T07:51:04.012Z,515.00
2023-06-16T07:52:03.018Z,516.00
2023-06-16T07:53:03.005Z,517.00
2023-06-16T07:54:04.500Z,518.00
2023-06-16T07:55:03.977Z,514.00
2023-06-16T07:56:03.979Z,513.00
2023-06-16T07:57:03.969Z,515.00
2023-06-16T07:58:04.004Z,515.00
2023-06-16T07:59:02.960Z,514.00
2023-06-16T08:00:03.945Z,517.00
2023-06-16T08:01:04.003Z,518.00
2023-06-16T08:02:03.925Z,521.00
2023-06-16T08:03:04.019Z,524.00
2023-06-16T08:04:03.318Z,523.00
2023-06-16T08:05:04.065Z,528.00
2023-06-16T08:06:02.945Z,531.00
2023-06-16T08:07:03.005Z,534.00
2023-06-16T08:08:04.050Z,534.00
2023-06-16T08:09:04.189Z,535.00
2023-06-16T08:10:04.186Z,535.00
2023-06-16T08:11:04.211Z,536.00
2023-06-16T08:12:03.257Z,538.00
2023-06-16T08:13:04.313Z,540.00
2023-06-16T08:14:03.376Z,540.00
2023-06-16T08:15:04.416Z,540.00
2023-06-16T08:16:04.504Z,543.00
2023-06-16T08:17:04.528Z,543.00
2023-06-16T08:18:03.614Z,543.00
2023-06-16T08:19:04.636Z,544.00
2023-06-16T08:20:04.668Z,545.00
2023-06-16T08:21:04.626Z,542.00
2023-06-16T08:22:04.772Z,540.00
2023-06-16T08:23:04.821Z,539.00
2023-06-16T08:24:03.901Z,539.00
2023-06-16T08:25:04.932Z,538.00
2023-06-16T08:26:05.029Z,541.00
2023-06-16T08:27:04.024Z,540.00
2023-06-16T08:28:05.088Z,536.00
2023-06-16T08:29:05.127Z,535.00
2023-06-16T08:30:04.204Z,534.00
2023-06-16T08:31:04.231Z,534.00
2023-06-16T08:32:05.293Z,535.00
2023-06-16T08:33:04.390Z,534.00
2023-06-16T08:34:05.390Z,535.00
2023-06-16T08:35:05.476Z,535.00
2023-06-16T08:36:05.502Z,533.00
2023-06-16T08:37:14.100Z,529.00
2023-06-16T08:38:05.562Z,527.00
2023-06-16T08:39:04.540Z,524.00
2023-06-16T08:40:05.545Z,527.00
2023-06-16T08:41:04.537Z,528.00
2023-06-16T08:42:05.564Z,526.00
2023-06-16T08:43:05.517Z,527.00
2023-06-16T08:44:05.510Z,528.00
2023-06-16T08:45:05.505Z,527.00
2023-06-16T08:46:05.551Z,527.00
2023-06-16T08:47:05.473Z,525.00
2023-06-16T08:48:04.530Z,526.00
2023-06-16T08:49:05.474Z,525.00
2023-06-16T08:50:04.463Z,525.00
2023-06-16T08:51:05.454Z,524.00
2023-06-16T08:52:05.466Z,521.00
2023-06-16T08:53:04.467Z,522.00
2023-06-16T08:54:05.430Z,523.00
2023-06-16T08:55:04.436Z,523.00
2023-06-16T08:56:05.408Z,524.00
2023-06-16T08:57:05.410Z,525.00
2023-06-16T08:58:05.447Z,525.00
2023-06-16T08:59:05.389Z,523.00
2023-06-16T09:00:04.378Z,524.00
2023-06-16T09:01:04.385Z,524.00
2023-06-16T09:02:05.370Z,524.00
2023-06-16T09:03:05.408Z,523.00
2023-06-16T09:04:05.456Z,525.00
2023-06-16T09:05:05.466Z,522.00
2023-06-16T09:06:05.506Z,524.00
2023-06-16T09:07:04.550Z,526.00
2023-06-16T09:08:05.971Z,529.00
2023-06-16T09:09:05.663Z,531.00
2023-06-16T09:10:05.705Z,532.00
2023-06-16T09:11:05.738Z,533.00
2023-06-16T09:12:04.842Z,531.00
2023-06-16T09:13:05.830Z,526.00
2023-06-16T09:14:04.939Z,525.00
2023-06-16T09:15:05.941Z,525.00
2023-06-16T09:16:06.011Z,527.00
2023-06-16T09:17:05.037Z,529.00
2023-06-16T09:18:05.084Z,529.00
2023-06-16T09:19:06.090Z,530.00
2023-06-16T09:20:06.143Z,530.00
2023-06-16T09:21:06.189Z,533.00
2023-06-16T09:22:06.220Z,534.00
2023-06-16T09:23:06.262Z,534.00
2023-06-16T09:24:06.386Z,535.00
2023-06-16T09:25:06.392Z,531.00
2023-06-16T09:26:06.477Z,527.00
2023-06-16T09:27:06.428Z,524.00
2023-06-16T09:28:06.525Z,524.00
2023-06-16T09:29:06.530Z,523.00
2023-06-16T09:30:06.611Z,524.00
2023-06-16T09:31:11.707Z,525.00
2023-06-16T09:32:06.609Z,525.00
2023-06-16T09:33:05.635Z,522.00
2023-06-16T09:34:06.588Z,523.00
2023-06-16T09:35:06.600Z,522.00
2023-06-16T09:36:06.576Z,522.00
2023-06-16T09:37:06.594Z,522.00
2023-06-16T09:38:06.616Z,523.00
2023-06-16T09:39:05.569Z,523.00
2023-06-16T09:40:05.567Z,524.00
2023-06-16T09:41:05.579Z,524.00
2023-06-16T09:42:06.553Z,525.00
2023-06-16T09:43:06.529Z,524.00
2023-06-16T09:44:06.536Z,525.00
2023-06-16T09:45:06.023Z,524.00
2023-06-16T09:46:06.595Z,525.00
2023-06-16T09:47:06.523Z,524.00
2023-06-16T09:48:06.723Z,523.00
2023-06-16T09:49:05.556Z,523.00
2023-06-16T09:50:06.505Z,523.00
2023-06-16T09:51:06.482Z,522.00
2023-06-16T09:52:06.497Z,521.00
2023-06-16T09:53:05.474Z,520.00
2023-06-16T09:54:06.465Z,523.00
2023-06-16T09:55:05.482Z,525.00
2023-06-16T09:56:05.464Z,525.00
2023-06-16T09:57:06.439Z,529.00
2023-06-16T09:58:06.452Z,529.00
2023-06-16T09:59:05.465Z,529.00
2023-06-16T10:00:06.445Z,533.00
2023-06-16T10:01:06.418Z,538.00
2023-06-16T10:02:06.451Z,543.00
2023-06-16T10:03:05.476Z,550.00
2023-06-16T10:04:06.434Z,548.00
2023-06-16T10:05:06.408Z,546.00
2023-06-16T10:06:06.385Z,544.00
2023-06-16T10:07:06.381Z,543.00
2023-06-16T10:08:05.419Z,549.00
2023-06-16T10:09:06.431Z,560.00
2023-06-16T10:10:05.504Z,558.00
2023-06-16T10:11:06.524Z,553.00
2023-06-16T10:12:05.554Z,548.00
2023-06-16T10:13:05.547Z,549.00
2023-06-16T10:14:05.589Z,550.00
2023-06-16T10:15:06.620Z,557.00
2023-06-16T10:16:06.639Z,558.00
2023-06-16T10:17:06.707Z,562.00
2023-06-16T10:18:09.623Z,561.00
2023-06-16T10:19:06.789Z,560.00
2023-06-16T10:20:06.670Z,556.00
2023-06-16T10:21:06.664Z,554.00
2023-06-16T10:22:07.823Z,550.00
2023-06-16T10:23:05.660Z,546.00
2023-06-16T10:24:06.675Z,545.00
2023-06-16T10:25:05.626Z,543.00
2023-06-16T10:26:06.633Z,543.00
2023-06-16T10:27:05.612Z,542.00
2023-06-16T10:28:06.687Z,540.00
2023-06-16T10:29:06.608Z,538.00
2023-06-16T10:30:06.586Z,538.00
2023-06-16T10:31:06.600Z,537.00
2023-06-16T10:32:06.584Z,535.00
2023-06-16T10:33:06.608Z,533.00
2023-06-16T10:34:06.607Z,535.00
2023-06-16T10:35:06.581Z,535.00
2023-06-16T10:37:05.545Z,539.00
2023-06-16T10:38:05.558Z,541.00
2023-06-16T10:39:06.529Z,545.00
2023-06-16T10:40:06.530Z,546.00
2023-06-16T10:41:06.548Z,544.00
2023-06-16T10:42:06.529Z,546.00
2023-06-16T10:43:06.512Z,547.00
2023-06-16T10:44:06.503Z,548.00
2023-06-16T10:45:05.529Z,546.00
2023-06-16T10:46:06.530Z,548.00
2023-06-16T10:47:06.720Z,548.00
2023-06-16T10:48:05.724Z,546.00
2023-06-16T10:49:06.495Z,549.00
2023-06-16T10:50:06.486Z,552.00
2023-06-16T10:51:06.560Z,556.00
2023-06-16T10:52:06.455Z,556.00
2023-06-16T10:53:06.428Z,556.00
2023-06-16T10:54:06.437Z,556.00
2023-06-16T10:55:06.413Z,557.00
2023-06-16T10:56:06.425Z,557.00
2023-06-16T10:57:11.197Z,560.00
2023-06-16T10:58:06.392Z,559.00
2023-06-16T10:59:06.395Z,561.00
2023-06-16T11:00:05.389Z,562.00
2023-06-16T11:01:06.636Z,564.00
2023-06-16T11:02:06.364Z,565.00
2023-06-16T11:03:06.402Z,563.00
2023-06-16T11:04:06.565Z,568.00
2023-06-16T11:05:06.348Z,570.00
2023-06-16T11:06:06.375Z,573.00
2023-06-16T11:07:14.092Z,571.00
2023-06-16T11:08:06.327Z,569.00
2023-06-16T11:09:05.312Z,571.00
2023-06-16T11:10:06.298Z,573.00
2023-06-16T11:11:06.543Z,572.00
2023-06-16T11:12:06.294Z,575.00
2023-06-16T11:13:06.304Z,576.00
2023-06-16T11:14:06.278Z,576.00
2023-06-16T11:15:06.298Z,577.00
2023-06-16T11:16:05.311Z,576.00
2023-06-16T11:17:06.245Z,577.00
2023-06-16T11:18:07.083Z,579.00
2023-06-16T11:19:06.235Z,579.00
2023-06-16T11:20:05.245Z,583.00
2023-06-16T11:21:06.251Z,585.00
2023-06-16T11:22:06.232Z,581.00
2023-06-16T11:23:06.214Z,579.00
2023-06-16T11:24:05.235Z,580.00
2023-06-16T11:25:06.201Z,579.00
2023-06-16T11:26:06.230Z,578.00
2023-06-16T11:27:05.183Z,576.00
2023-06-16T11:28:06.191Z,577.00
2023-06-16T11:29:06.187Z,577.00
2023-06-16T11:30:06.151Z,579.00
2023-06-16T11:31:06.179Z,582.00
2023-06-16T11:32:06.165Z,583.00
2023-06-16T11:33:05.171Z,583.00
2023-06-16T11:34:06.142Z,582.00
2023-06-16T11:35:06.146Z,586.00
2023-06-16T11:36:06.146Z,589.00
2023-06-16T11:37:06.120Z,589.00
2023-06-16T11:38:06.164Z,588.00
2023-06-16T11:39:06.112Z,588.00
2023-06-16T11:40:05.097Z,589.00
2023-06-16T11:41:11.718Z,588.00
2023-06-16T11:42:06.084Z,588.00
2023-06-16T11:43:06.088Z,588.00
2023-06-16T11:44:05.069Z,587.00
2023-06-16T11:45:06.101Z,587.00
2023-06-16T11:46:05.079Z,588.00
2023-06-16T11:47:06.133Z,590.00
2023-06-16T11:48:05.093Z,588.00
2023-06-16T11:49:05.024Z,588.00
2023-06-16T11:50:05.042Z,589.00
2023-06-16T11:51:06.041Z,592.00
2023-06-16T11:52:06.005Z,592.00
2023-06-16T11:53:06.002Z,591.00
2023-06-16T11:54:06.045Z,591.00
2023-06-16T11:55:05.992Z,591.00
2023-06-16T11:56:05.977Z,593.00
2023-06-16T11:57:05.973Z,594.00
2023-06-16T11:58:05.990Z,595.00
2023-06-16T11:59:05.958Z,596.00
2023-06-16T12:00:05.965Z,596.00
2023-06-16T12:01:05.984Z,594.00
2023-06-16T12:02:05.951Z,591.00
2023-06-16T12:03:05.016Z,590.00
2023-06-16T12:04:07.141Z,589.00
2023-06-16T12:05:05.967Z,587.00
2023-06-16T12:06:05.967Z,591.00
2023-06-16T12:07:06.068Z,592.00
2023-06-16T12:08:05.979Z,593.00
2023-06-16T12:09:06.004Z,592.00
2023-06-16T12:10:06.040Z,592.00
2023-06-16T12:11:06.013Z,593.00
2023-06-16T12:12:06.016Z,592.00
2023-06-16T12:13:06.020Z,589.00
2023-06-16T12:14:06.049Z,587.00
2023-06-16T12:15:06.052Z,585.00
2023-06-16T12:16:06.071Z,585.00
2023-06-16T12:17:06.077Z,584.00
2023-06-16T12:18:06.128Z,583.00
2023-06-16T12:19:06.116Z,583.00
2023-06-16T12:20:06.124Z,580.00
2023-06-16T12:21:05.150Z,578.00
2023-06-16T12:22:06.161Z,579.00
2023-06-16T12:23:06.186Z,580.00
2023-06-16T12:24:06.214Z,578.00
2023-06-16T12:25:06.194Z,574.00
2023-06-16T12:26:06.220Z,571.00
2023-06-16T12:27:06.208Z,569.00
2023-06-16T12:28:05.209Z,569.00
2023-06-16T12:29:05.237Z,571.00
2023-06-16T12:30:06.274Z,571.00